Nearby METAR Reports

CWGD - Goderich (autob), Ontario, Canada
Distance from station: SW 47km
Updated: 08/07/2020 10:00pm

 Wind from E
Wind: E 7 km/h
Temperature: 15°C
Dew Point: 13°C
Humidity: 88%
2020/08/08 02:00 CWGD 080200Z AUTO 10004KT 15/13 RMK AO1 SLP227 T01540133 53007
CWLS - Mount Forest(Mar, Ontario, Canada
Distance from station: ESE 53km
Updated: 08/07/2020 10:00pm

 Wind from N
Wind: N 4 km/h
Temperature: 17°C
Dew Point: 13°C
Humidity: 77%
2020/08/08 02:00 CWLS 080200Z AUTO 01002KT 17/13 RMK AO1 SLP226 T01720133 53011
 
CYVV - Wiarton Air, Ontario, Canada
Distance from station: NNE 75km
Updated: 08/07/2020 10:00pm
Clear
Clear
 Wind from ESE
Wind: ESE 6 km/h
Temperature: 15°C
Dew Point: 14°C
Humidity: 94%
Barometer: 1021.3 hPa
Clouds: Clear
Visibility: 24 km
2020/08/08 02:00 CYVV 080200Z 11003KT 15SM SKC 15/14 A3016 RMK SLP215
CZEL - Elora Rcs, Ontario, Canada
Distance from station: ESE 93km
Updated: 08/07/2020 10:00pm

 Wind from SE
Wind: SE 6 km/h
Temperature: 19°C
Dew Point: 14°C
Humidity: 73%
2020/08/08 02:00 CZEL 080200Z AUTO 14003KT 19/14 RMK AO1 SLP225 T01900137 53010
 
CWCO - Collingwood (aut, Ontario, Canada
Distance from station: ENE 104km
Updated: 08/07/2020 10:00pm

 Wind from S
Wind: S 4 km/h
Temperature: 18°C
2020/08/08 02:00 CWCO 080200Z AUTO 19002KT 18/ RMK AO1 SLP204 T0178 53006
CYKF - Waterloo Well, Ontario, Canada
Distance from station: SE 107km
Updated: 08/07/2020 10:00pm
Clear
Clear
 Wind from E
Wind: E 4 km/h
Temperature: 17°C
Dew Point: 14°C
Humidity: 83%
Barometer: 1021.3 hPa
Clouds: Clear
Visibility: 14 km
2020/08/08 02:00 CYKF 080200Z AUTO 10002KT 9SM CLR 17/14 A3016 RMK SLP213 DENSITY ALT 1200FT
 
KP58 - Port Hope, Michigan, USA
Distance from station: W 114km
Updated: 08/07/2020 10:51pm

 Wind from SSE
Wind: SSE 6 km/h
Temperature: 17°C
Dew Point: 14°C
Humidity: 83%
Barometer: 1021 hPa
2020/08/08 02:51 KP58 080251Z AUTO 16003KT 17/14 A3015 RMK AO1 SLP203 T01720139 50002
CYBN - Borden, Ontario, Canada
Distance from station: E 118km
Updated: 08/07/2020 10:00pm
Few Clouds
Few Clouds
 Wind from calm
Wind: Calm
Temperature: 16°C
Dew Point: 14°C
Humidity: 88%
Barometer: 1021.3 hPa
Clouds: Few Clouds
Visibility: 14 km
Cloud details: Few Clouds 2438 m
2020/08/08 02:00 CYBN 080200Z AUTO 00000KT 9SM FEW080 16/14 A3016 RMK SLP212
 
CYXU - London Airport, Ontario, Canada
Distance from station: S 123km
Updated: 08/07/2020 10:00pm
Few Clouds
Few Clouds
 Wind from NW
Wind: NW 9 km/h
Temperature: 20°C
Dew Point: 14°C
Humidity: 69%
Barometer: 1021.7 hPa
Clouds: Few Clouds
Visibility: 24 km
Cloud details: Few Clouds 2286 m
2020/08/08 02:00 CYXU 080200Z 32005KT 15SM FEW075 20/14 A3017 RMK AC1 SLP214 DENSITY ALT 1400FT
CXET - Egbert Cs, Ontario, Canada
Distance from station: E 128km
Updated: 08/07/2020 10:00pm

 Wind from N
Wind: N 4 km/h
Temperature: 18°C
Dew Point: 14°C
Humidity: 78%
2020/08/08 02:00 CXET 080200Z AUTO 35002KT 18/14 RMK AO1 3010 SLP219 T01810135 50003
 
CWMZ - Western Isl (map, Ontario, Canada
Distance from station: NE 129km
Updated: 08/07/2020 10:00pm

 Wind from NNW
Wind: NNW 7 km/h
Temperature: 22°C
Dew Point: 15°C
Humidity: 65%
2020/08/08 02:00 CWMZ 080200Z AUTO 34004KT 22/15 RMK AO1 SLP206 T02160152 53006
KBAX - Bad Axe, Michigan, USA
Distance from station: WSW 133km
Updated: 08/07/2020 10:35pm
Clear
Clear
 Wind from calm
Wind: Calm
Temperature: 16°C
Dew Point: 15°C
Humidity: 94%
Barometer: 1021.3 hPa
Clouds: Clear
Visibility: 16 km
2020/08/08 02:35 KBAX 080235Z AUTO 00000KT 10SM CLR 16/15 A3016 RMK AO2 T01550146
 
CWWX - Cove Island (map, Ontario, Canada
Distance from station: NNW 137km
Updated: 08/07/2020 10:00pm

 Wind from WNW
Wind: WNW 7 km/h
Temperature: 19°C
Dew Point: 17°C
Humidity: 88%
2020/08/08 02:00 CWWX 080200Z AUTO 29004KT 19/17 RMK AO1 SLP205 T01900173 53002
CYZR - Sarnia Airport, Ontario, Canada
Distance from station: SSW 144km
Updated: 08/07/2020 10:00pm
Clear
Clear
 Wind from SE
Wind: SE 6 km/h
Temperature: 19°C
Dew Point: 14°C
Humidity: 73%
Barometer: 1021.3 hPa
Clouds: Clear
Visibility: 14 km
2020/08/08 02:00 CYZR 080200Z AUTO 13003KT 9SM CLR 19/14 A3016 RMK SLP213 DENSITY ALT 800FT
 
CXHM - Hamilton Rbg Cs, Ontario, Canada
Distance from station: SE 150km
Updated: 08/07/2020 10:00pm

 Wind from NW
Wind: NW 2 km/h
Temperature: 16°C
Dew Point: 12°C
Humidity: 77%
2020/08/08 02:00 CXHM 080200Z AUTO 31001KT 16/12 RMK AO1 SLP204 T01640115 53007
CYYZ - Toronto/Pearson, Ontario, Canada
Distance from station: ESE 150km
Updated: 08/07/2020 10:00pm
Few Clouds
Few Clouds
 Wind from varies
Wind: varies 4 km/h
Temperature: 21°C
Dew Point: 9°C
Humidity: 46%
Barometer: 1020.7 hPa
Clouds: Few Clouds
Visibility: 24 km
Cloud details: Few Clouds 1890 m
2020/08/08 02:00 CYYZ 080200Z VRB02KT 15SM FEW062 21/09 A3014 RMK SC1 SC TR SLP207 DENSITY ALT 1200FT
 
CXBI - Barrie-Oro, Ontario, Canada
Distance from station: ENE 151km
Updated: 08/07/2020 10:00pm

 Wind from NW
Wind: NW 4 km/h
Temperature: 16°C
Dew Point: 14°C
Humidity: 88%
2020/08/08 02:00 CXBI 080200Z AUTO 31002KT 16/14 RMK AO1 SLP216 T01590138 53010
CXDI - Delhi Cs (aut), Ontario, Canada
Distance from station: SSE 154km
Updated: 08/07/2020 10:00pm

 Wind from S
Wind: S 4 km/h
Temperature: 18°C
Dew Point: 15°C
Humidity: 83%
2020/08/08 02:00 CXDI 080200Z AUTO 19002KT 18/15 RMK AO1 SLP220 T01800147 53010
 
CWWB - Burlington Piers, Ontario, Canada
Distance from station: SE 157km
Updated: 08/07/2020 10:00pm

 Wind from N
Wind: N 2 km/h
Temperature: 21°C
Dew Point: 15°C
Humidity: 69%
2020/08/08 02:00 CWWB 080200Z AUTO 35001KT 21/15 RMK AO1 SLP205 T02090148 53007
CYHM - Hamilton Airport, Ontario, Canada
Distance from station: SE 157km
Updated: 08/07/2020 10:00pm
Few Clouds
Few Clouds
 Wind from NNE
Wind: NNE 4 km/h
Temperature: 18°C
Dew Point: 13°C
Humidity: 73%
Barometer: 1021 hPa
Clouds: Few Clouds
Visibility: 24 km
Cloud details: Few Clouds 1829 m
2020/08/08 02:00 CYHM 080200Z 02002KT 15SM FEW060 18/13 A3015 RMK SC1 SC TR SLP211 DENSITY ALT 1100FT